Time;durP1;ratioP1;P1;durP2;ratioP2;P2;SDS_P1;SDS_P2;PMS_P1;PMS_P2;Temp;Humidity;BMP_temperature;BMP_pressure;BME280_temperature;BME280_humidity;BME280_pressure;Samples;Min_cycle;Max_cycle;Signal;HPM_P1;HPM_P2
2023/05/22 00:01:26;;;;;;;32.40;18.90;;;11.70;99.90;;;;;;4994932;28;20029;-62
2023/05/22 00:03:53;;;;;;;29.77;18.58;;;11.80;99.90;;;;;;4995162;28;20121;-62
2023/05/22 00:06:19;;;;;;;32.60;18.48;;;11.80;99.90;;;;;;4995181;28;20030;-62
2023/05/22 00:08:45;;;;;;;27.55;18.13;;;11.70;99.90;;;;;;4994204;28;20030;-62
2023/05/22 00:11:11;;;;;;;31.75;19.70;;;11.70;99.90;;;;;;4995050;28;20568;-62
2023/05/22 00:13:37;;;;;;;34.58;21.10;;;11.70;99.90;;;;;;4995007;28;20145;-62
2023/05/22 00:16:03;;;;;;;39.72;22.52;;;11.70;99.90;;;;;;4994974;28;20029;-62
2023/05/22 00:18:29;;;;;;;35.70;21.35;;;11.60;99.90;;;;;;4995049;28;20043;-62
2023/05/22 00:20:56;;;;;;;39.45;23.60;;;11.60;99.90;;;;;;4995213;28;20106;-62
2023/05/22 00:23:23;;;;;;;34.65;21.23;;;11.60;99.90;;;;;;4995079;28;20034;-62
2023/05/22 00:25:49;;;;;;;35.22;20.23;;;11.60;99.90;;;;;;4994918;28;20113;-63
2023/05/22 00:28:15;;;;;;;41.92;21.58;;;11.60;99.90;;;;;;4995013;28;20053;-62
2023/05/22 00:30:41;;;;;;;30.20;18.48;;;11.60;99.90;;;;;;4994875;28;20061;-62
2023/05/22 00:33:07;;;;;;;38.63;22.13;;;11.60;99.90;;;;;;4977565;28;20030;-62
2023/05/22 00:35:33;;;;;;;33.70;20.95;;;11.70;99.90;;;;;;4994863;28;20388;-62
2023/05/22 00:38:04;;;;;;;34.65;20.90;;;11.70;99.90;;;;;;4977317;28;20088;-61
2023/05/22 00:40:30;;;;;;;33.88;19.85;;;11.70;99.90;;;;;;4994993;28;20037;-61
2023/05/22 00:42:56;;;;;;;31.58;20.10;;;11.70;99.90;;;;;;4973978;28;20098;-62
2023/05/22 00:45:23;;;;;;;38.30;19.92;;;11.70;99.90;;;;;;4975256;28;20432;-62
2023/05/22 00:47:49;;;;;;;31.65;19.80;;;11.60;99.90;;;;;;4975291;28;20551;-62
2023/05/22 00:50:17;;;;;;;37.75;20.15;;;11.60;99.90;;;;;;4974106;28;20031;-62
2023/05/22 00:52:45;;;;;;;32.28;18.55;;;11.50;99.90;;;;;;4975293;28;20106;-62
2023/05/22 00:55:13;;;;;;;35.17;19.75;;;11.50;99.90;;;;;;4974138;28;20054;-62
2023/05/22 00:57:40;;;;;;;34.15;19.42;;;11.50;99.90;;;;;;4973960;28;20035;-62
2023/05/22 01:00:13;;;;;;;32.30;17.65;;;11.40;99.90;;;;;;4973894;28;20049;-62
2023/05/22 01:02:41;;;;;;;34.45;19.13;;;11.40;99.90;;;;;;4975427;28;20074;-62
2023/05/22 01:05:10;;;;;;;30.02;17.80;;;11.50;99.90;;;;;;4975431;28;20031;-62
2023/05/22 01:07:36;;;;;;;31.58;16.63;;;11.50;99.90;;;;;;4974972;28;20038;-62
2023/05/22 01:10:04;;;;;;;34.42;16.70;;;11.50;99.90;;;;;;4974922;28;20576;-62
2023/05/22 01:13:17;;;;;;;30.52;15.25;;;11.50;99.90;;;;;;4975156;28;20531;-62
2023/05/22 01:15:48;;;;;;;24.65;14.82;;;11.40;99.90;;;;;;4985258;28;20121;-62
2023/05/22 01:18:23;;;;;;;23.35;15.45;;;11.40;99.90;;;;;;4973941;28;20544;-61
2023/05/22 01:21:13;;;;;;;25.75;15.70;;;11.40;99.90;;;;;;4977361;28;20031;-62
2023/05/22 01:24:18;;;;;;;22.52;14.45;;;11.30;99.90;;;;;;4971409;28;20439;-62
2023/05/22 01:27:24;;;;;;;23.92;14.82;;;11.40;99.90;;;;;;4978395;28;20042;-62
2023/05/22 01:30:03;;;;;;;24.52;13.98;;;11.20;99.90;;;;;;4978521;28;20023;-62
2023/05/22 01:32:30;;;;;;;23.42;14.52;;;11.10;99.90;;;;;;4977310;28;20035;-62
2023/05/22 01:35:00;;;;;;;23.83;15.05;;;11.10;99.90;;;;;;4977024;28;20117;-62
2023/05/22 01:37:26;;;;;;;25.35;16.38;;;11.10;99.90;;;;;;4978523;28;20026;-62
2023/05/22 01:39:53;;;;;;;27.95;17.73;;;11.20;99.90;;;;;;4978393;28;20057;-62
2023/05/22 01:42:19;;;;;;;33.45;20.70;;;11.00;99.90;;;;;;4983527;28;20408;-62
2023/05/22 01:44:48;;;;;;;33.90;19.08;;;11.00;99.90;;;;;;4997746;28;20026;-62
2023/05/22 01:47:15;;;;;;;25.08;18.60;;;11.00;99.90;;;;;;4997613;28;20392;-62
2023/05/22 01:49:41;;;;;;;39.10;21.92;;;11.00;99.90;;;;;;4997557;28;20042;-62
2023/05/22 01:52:21;;;;;;;31.92;23.70;;;11.00;99.90;;;;;;4997658;28;20065;-62
2023/05/22 01:54:54;;;;;;;32.35;26.15;;;11.00;99.90;;;;;;4997647;28;20045;-62
2023/05/22 01:57:45;;;;;;;33.47;23.90;;;10.90;99.90;;;;;;4997345;28;20063;-62
2023/05/22 02:00:14;;;;;;;39.05;24.70;;;10.90;99.90;;;;;;4979846;28;20046;-62
2023/05/22 02:02:47;;;;;;;33.28;22.83;;;10.90;99.90;;;;;;4997610;28;20044;-62
2023/05/22 02:05:17;;;;;;;32.10;21.95;;;10.90;99.90;;;;;;4979841;28;20038;-62
2023/05/22 02:07:44;;;;;;;29.27;19.20;;;10.90;99.90;;;;;;4997258;28;20035;-62
2023/05/22 02:10:12;;;;;;;29.80;18.08;;;10.90;99.90;;;;;;4979617;28;20444;-62
2023/05/22 02:12:38;;;;;;;31.35;19.83;;;10.90;99.90;;;;;;4979598;28;20062;-62
2023/05/22 02:15:07;;;;;;;31.05;18.63;;;10.90;99.90;;;;;;4979710;28;20030;-61
2023/05/22 02:17:39;;;;;;;40.35;19.50;;;10.90;99.90;;;;;;4979575;28;20479;-62
2023/05/22 02:20:14;;;;;;;29.85;18.63;;;10.90;99.90;;;;;;4979553;28;20045;-62
2023/05/22 02:22:44;;;;;;;28.75;18.25;;;10.90;99.90;;;;;;4997006;28;20157;-62
2023/05/22 02:25:13;;;;;;;33.95;18.10;;;10.80;99.90;;;;;;4979297;28;20041;-62
2023/05/22 02:27:44;;;;;;;27.27;17.00;;;10.80;99.90;;;;;;4979521;28;20038;-62
2023/05/22 02:30:11;;;;;;;;;;;10.70;99.90;;;;;;4979184;28;20038;-61
2023/05/22 02:32:39;;;;;;;29.67;16.42;;;10.70;99.90;;;;;;4979161;28;20331;-61
2023/05/22 02:35:05;;;;;;;28.55;16.80;;;10.60;99.90;;;;;;4996807;28;20022;-62
2023/05/22 02:37:31;;;;;;;30.23;17.83;;;10.70;99.90;;;;;;4996682;28;20034;-62
2023/05/22 02:39:57;;;;;;;28.65;16.98;;;10.60;99.90;;;;;;4996697;28;20042;-61
2023/05/22 02:42:24;;;;;;;26.42;15.82;;;10.60;99.90;;;;;;4979196;28;20061;-62
2023/05/22 02:44:50;;;;;;;30.52;18.10;;;10.60;99.90;;;;;;4979041;28;20026;-61
2023/05/22 02:47:16;;;;;;;29.08;17.83;;;10.60;99.90;;;;;;4978846;28;20096;-61
2023/05/22 02:49:44;;;;;;;26.90;17.90;;;10.70;99.90;;;;;;4979097;28;20468;-62
2023/05/22 02:52:10;;;;;;;25.15;17.42;;;10.70;99.90;;;;;;4979171;28;20038;-63
2023/05/22 02:54:36;;;;;;;26.80;16.67;;;10.70;99.90;;;;;;4979123;28;20042;-62
2023/05/22 02:57:02;;;;;;;27.38;16.90;;;10.70;99.90;;;;;;4996451;28;20035;-61
2023/05/22 02:59:29;;;;;;;29.00;18.77;;;10.70;99.90;;;;;;4978818;28;20049;-62
2023/05/22 03:01:55;;;;;;;31.88;18.83;;;10.70;99.90;;;;;;4978753;28;20035;-61
2023/05/22 03:04:23;;;;;;;27.02;16.75;;;10.60;99.90;;;;;;4978761;28;20030;-62
2023/05/22 03:06:49;;;;;;;26.35;17.83;;;10.70;99.90;;;;;;4962500;28;20030;-62
2023/05/22 03:09:15;;;;;;;32.97;20.05;;;10.80;99.90;;;;;;4995979;28;20441;-62
2023/05/22 03:11:41;;;;;;;28.02;18.48;;;10.80;99.90;;;;;;4996297;28;20061;-62
2023/05/22 03:14:07;;;;;;;28.38;18.15;;;10.80;99.90;;;;;;4996104;28;20037;-61
2023/05/22 03:16:33;;;;;;;30.65;18.40;;;10.80;99.90;;;;;;4978479;28;20035;-62
2023/05/22 03:19:07;;;;;;;28.90;18.27;;;10.80;99.90;;;;;;4996017;28;20027;-62
2023/05/22 03:21:33;;;;;;;26.83;17.05;;;10.80;99.90;;;;;;4978301;28;20053;-61
2023/05/22 03:23:59;;;;;;;26.08;15.73;;;10.70;99.90;;;;;;4978363;28;20023;-61
2023/05/22 03:26:27;;;;;;;21.75;16.02;;;10.70;99.90;;;;;;4978314;28;20030;-61
2023/05/22 03:28:55;;;;;;;24.85;16.38;;;10.70;99.90;;;;;;4978279;28;20041;-62
2023/05/22 03:31:25;;;;;;;24.58;16.17;;;10.70;99.90;;;;;;4978480;28;20038;-62
2023/05/22 03:34:06;;;;;;;44.80;28.55;;;10.80;99.90;;;;;;4978108;28;20033;-62
2023/05/22 03:36:34;;;;;;;46.33;31.67;;;10.90;99.90;;;;;;4978172;28;20026;-62
2023/05/22 03:39:01;;;;;;;83.47;63.97;;;10.90;99.90;;;;;;4978312;28;20034;-62
2023/05/22 03:41:28;;;;;;;82.18;67.53;;;11.00;99.90;;;;;;4978148;28;20030;-61
2023/05/22 03:43:56;;;;;;;83.22;67.22;;;11.00;99.90;;;;;;4977873;28;20046;-61
2023/05/22 03:46:23;;;;;;;77.63;62.67;;;11.00;99.90;;;;;;4977980;28;20121;-61
2023/05/22 03:48:49;;;;;;;79.38;60.03;;;11.00;99.90;;;;;;4977736;28;20491;-61
2023/05/22 03:51:15;;;;;;;47.38;35.63;;;11.10;99.90;;;;;;4995286;28;20019;-62
2023/05/22 03:53:41;;;;;;;37.60;27.92;;;11.10;99.90;;;;;;4978181;28;20412;-62
2023/05/22 03:56:07;;;;;;;49.15;33.88;;;11.10;99.90;;;;;;4995274;28;20057;-61
2023/05/22 03:58:33;;;;;;;39.35;32.33;;;11.20;99.90;;;;;;4977648;28;20045;-62
2023/05/22 04:01:00;;;;;;;46.15;34.72;;;11.20;99.90;;;;;;4995262;28;20030;-61
2023/05/22 04:03:27;;;;;;;43.97;31.27;;;11.30;99.90;;;;;;4995331;28;20076;-61
2023/05/22 04:05:53;;;;;;;37.40;26.75;;;11.30;99.90;;;;;;4995169;28;20045;-62
2023/05/22 04:08:19;;;;;;;44.63;27.45;;;11.50;99.90;;;;;;4995006;28;20049;-61
2023/05/22 04:10:45;;;;;;;39.78;25.52;;;11.60;99.90;;;;;;4994993;28;20451;-62
2023/05/22 04:13:16;;;;;;;35.38;23.33;;;11.60;99.90;;;;;;4995077;28;20030;-62
2023/05/22 04:15:45;;;;;;;35.70;24.25;;;11.60;99.90;;;;;;4995131;28;20563;-62
2023/05/22 04:18:13;;;;;;;32.65;23.67;;;11.70;99.90;;;;;;4995041;28;20086;-62
2023/05/22 04:20:41;;;;;;;34.22;24.15;;;11.70;99.90;;;;;;4977478;28;20034;-62
2023/05/22 04:23:08;;;;;;;37.17;25.45;;;11.80;99.90;;;;;;4994966;28;20038;-62
2023/05/22 04:25:35;;;;;;;42.55;26.23;;;11.90;99.90;;;;;;4994989;28;20026;-62
2023/05/22 04:28:02;;;;;;;38.97;24.00;;;12.10;99.90;;;;;;4974357;28;20494;-62
2023/05/22 04:30:38;;;;;;;34.25;22.05;;;12.10;99.90;;;;;;4975444;28;20114;-62
2023/05/22 04:33:05;;;;;;;36.38;20.77;;;12.20;99.90;;;;;;4974084;28;20035;-62
2023/05/22 04:35:31;;;;;;;31.00;18.50;;;12.40;99.90;;;;;;4974230;28;20031;-62
2023/05/22 04:38:01;;;;;;;30.33;19.15;;;12.40;99.90;;;;;;4958172;28;20035;-62
2023/05/22 04:40:29;;;;;;;40.22;19.85;;;12.40;99.90;;;;;;4957922;28;20027;-61
2023/05/22 04:42:58;;;;;;;35.42;20.25;;;12.50;99.90;;;;;;4975343;28;20118;-62
2023/05/22 04:45:25;;;;;;;29.35;18.40;;;12.60;99.90;;;;;;4986601;28;20034;-62
2023/05/22 04:47:52;;;;;;;27.13;17.23;;;12.70;99.90;;;;;;4994512;28;20030;-62
2023/05/22 04:50:19;;;;;;;32.28;18.00;;;12.80;99.90;;;;;;4977330;28;20023;-62
2023/05/22 04:52:46;;;;;;;29.17;19.05;;;12.90;99.90;;;;;;4994823;28;20507;-62
2023/05/22 04:55:13;;;;;;;34.70;18.17;;;13.00;99.90;;;;;;4980059;28;20117;-62
2023/05/22 04:57:40;;;;;;;35.83;17.63;;;13.10;99.90;;;;;;4981111;28;20121;-62
2023/05/22 05:00:07;;;;;;;33.58;17.88;;;13.30;99.90;;;;;;4980832;28;20555;-62
2023/05/22 05:02:35;;;;;;;33.88;18.02;;;13.30;99.90;;;;;;4980820;28;20041;-62
2023/05/22 05:05:01;;;;;;;31.83;17.38;;;13.50;99.90;;;;;;4998543;28;20145;-62
2023/05/22 05:07:28;;;;;;;33.67;18.00;;;13.70;99.90;;;;;;4980882;28;20046;-62
2023/05/22 05:09:54;;;;;;;34.78;19.40;;;13.70;99.90;;;;;;4980479;28;20113;-62
2023/05/22 05:12:20;;;;;;;30.17;18.23;;;13.90;99.90;;;;;;4980711;28;20251;-62
2023/05/22 05:14:46;;;;;;;30.75;17.55;;;14.00;99.90;;;;;;4980748;28;20065;-62
2023/05/22 05:17:14;;;;;;;24.35;16.80;;;14.00;99.90;;;;;;4980341;28;20395;-62
2023/05/22 05:19:40;;;;;;;28.10;17.83;;;14.00;99.90;;;;;;4980738;28;20038;-62
2023/05/22 05:22:06;;;;;;;28.48;17.60;;;14.10;99.90;;;;;;4980086;28;20038;-62
2023/05/22 05:24:32;;;;;;;32.38;18.65;;;14.20;99.90;;;;;;4980975;28;20045;-62
2023/05/22 05:26:58;;;;;;;33.33;17.80;;;14.30;99.90;;;;;;4981118;28;20042;-62
2023/05/22 05:29:25;;;;;;;29.55;17.00;;;14.50;99.90;;;;;;4981215;28;20381;-63
2023/05/22 05:31:57;;;;;;;27.58;16.80;;;14.60;99.90;;;;;;4980985;28;20026;-62
2023/05/22 05:34:52;;;;;;;33.85;18.50;;;14.70;99.90;;;;;;4980947;28;20038;-62
2023/05/22 05:37:37;;;;;;;29.23;17.65;;;14.70;99.90;;;;;;4997582;28;20061;-62
2023/05/22 05:40:06;;;;;;;26.90;17.17;;;14.90;99.90;;;;;;4979779;28;20484;-62
2023/05/22 05:42:33;;;;;;;32.75;18.95;;;15.00;99.90;;;;;;4979688;28;20055;-63
2023/05/22 05:45:02;;;;;;;30.42;20.83;;;15.10;99.90;;;;;;4979822;28;20474;-63
2023/05/22 05:47:30;;;;;;;43.45;22.30;;;15.20;99.90;;;;;;4979044;28;20030;-62
2023/05/22 05:49:57;;;;;;;37.88;22.17;;;15.30;99.90;;;;;;4996019;28;20030;-63
2023/05/22 05:52:31;;;;;;;40.92;22.48;;;15.40;99.90;;;;;;4996123;28;20034;-62
2023/05/22 05:54:59;;;;;;;33.33;20.52;;;15.50;99.90;;;;;;4994743;28;20165;-62
2023/05/22 05:57:26;;;;;;;39.40;21.20;;;15.50;99.90;;;;;;4995688;28;20038;-62
2023/05/22 06:00:00;;;;;;;38.38;21.55;;;15.60;99.90;;;;;;4995738;28;20041;-62
2023/05/22 06:02:42;;;;;;;36.38;21.13;;;15.80;99.90;;;;;;4997234;28;20042;-62
2023/05/22 06:05:28;;;;;;;27.63;18.27;;;15.90;99.90;;;;;;4995912;28;20045;-62
2023/05/22 06:08:07;;;;;;;34.15;20.65;;;16.00;99.90;;;;;;4995723;28;20179;-63
2023/05/22 06:10:33;;;;;;;36.60;19.35;;;16.00;99.90;;;;;;4995381;28;20027;-62
2023/05/22 06:13:10;;;;;;;32.33;19.55;;;16.20;99.90;;;;;;4995834;28;20100;-63
2023/05/22 06:15:40;;;;;;;31.08;19.02;;;16.40;99.90;;;;;;4995620;28;20062;-62
2023/05/22 06:18:07;;;;;;;37.55;19.42;;;16.50;99.90;;;;;;4995645;28;20342;-63
2023/05/22 06:20:33;;;;;;;31.55;18.60;;;16.70;99.90;;;;;;4995434;28;20034;-63
2023/05/22 06:22:59;;;;;;;32.20;19.30;;;16.70;99.90;;;;;;4995687;28;20122;-62
2023/05/22 06:25:28;;;;;;;33.80;20.55;;;16.90;99.90;;;;;;4995535;28;20484;-62
2023/05/22 06:27:55;;;;;;;27.80;19.02;;;17.10;99.90;;;;;;4979725;28;20460;-62
2023/05/22 06:30:21;;;;;;;35.28;20.65;;;17.20;99.90;;;;;;4979317;28;20054;-63
2023/05/22 06:32:48;;;;;;;28.10;18.65;;;17.30;99.90;;;;;;4978884;28;20547;-63
2023/05/22 06:35:16;;;;;;;34.55;19.80;;;17.40;99.90;;;;;;4978624;28;20068;-63
2023/05/22 06:37:42;;;;;;;33.10;18.60;;;17.60;99.90;;;;;;4979126;28;20049;-63
2023/05/22 06:40:09;;;;;;;29.42;18.23;;;17.60;99.90;;;;;;4979039;28;20065;-63
2023/05/22 06:42:50;;;;;;;;;;;17.90;99.90;;;;;;4979112;28;20074;-63
2023/05/22 06:45:28;;;;;;;25.95;17.75;;;18.10;99.90;;;;;;4996601;28;19972;-63
2023/05/22 06:48:14;;;;;;;28.40;17.40;;;18.30;99.90;;;;;;4965701;28;20108;-63
2023/05/22 06:50:57;;;;;;;28.17;17.05;;;18.50;99.90;;;;;;4978914;28;20057;-63
2023/05/22 06:53:24;;;;;;;27.92;17.63;;;18.70;99.90;;;;;;4978840;28;20031;-63
2023/05/22 06:55:52;;;;;;;26.70;16.52;;;18.90;99.90;;;;;;4978484;28;20053;-63
2023/05/22 06:58:27;;;;;;;33.60;17.20;;;19.10;99.90;;;;;;4978633;28;20026;-63
2023/05/22 07:00:54;;;;;;;33.50;17.48;;;19.30;99.90;;;;;;4978381;28;20475;-63
2023/05/22 07:03:27;;;;;;;30.20;16.80;;;19.50;99.90;;;;;;4978429;28;20030;-63
2023/05/22 07:06:23;;;;;;;25.58;14.27;;;19.60;99.90;;;;;;4986765;28;20039;-63
2023/05/22 07:08:50;;;;;;;30.77;15.85;;;19.90;99.90;;;;;;4984132;28;20038;-63
2023/05/22 07:11:23;;;;;;;26.23;15.88;;;20.10;99.90;;;;;;4997371;28;20082;-63
2023/05/22 07:14:01;;;;;;;25.10;14.07;;;20.40;99.90;;;;;;5015313;28;20034;-63
2023/05/22 07:16:29;;;;;;;29.67;14.85;;;20.90;99.90;;;;;;4997380;28;20072;-63
2023/05/22 07:18:57;;;;;;;25.50;15.45;;;21.20;99.20;;;;;;5015204;28;20519;-63
2023/05/22 07:21:23;;;;;;;22.95;14.60;;;21.40;98.30;;;;;;4997656;28;20036;-63
2023/05/22 07:23:51;;;;;;;23.70;14.80;;;21.70;97.50;;;;;;4997529;28;20365;-63
2023/05/22 07:26:18;;;;;;;26.92;15.02;;;22.10;98.10;;;;;;4990899;28;20034;-63
2023/05/22 07:28:50;;;;;;;23.50;14.15;;;22.40;94.40;;;;;;4978020;28;20041;-63
2023/05/22 07:31:16;;;;;;;21.42;12.60;;;22.70;94.90;;;;;;4995688;28;20031;-63
2023/05/22 07:33:44;;;;;;;28.52;13.68;;;22.80;93.00;;;;;;4977920;28;20030;-63
2023/05/22 07:36:10;;;;;;;19.58;12.10;;;23.10;92.00;;;;;;4977775;28;20022;-63
2023/05/22 07:38:39;;;;;;;17.27;11.70;;;23.00;90.10;;;;;;4977878;28;20392;-64
2023/05/22 07:41:05;;;;;;;24.08;11.80;;;23.20;88.10;;;;;;4974708;28;20072;-63
2023/05/22 07:43:32;;;;;;;19.77;9.35;;;23.50;88.50;;;;;;4996868;28;20065;-63
2023/05/22 07:45:59;;;;;;;16.83;11.05;;;23.90;85.80;;;;;;4981081;28;20034;-64
2023/05/22 07:48:29;;;;;;;18.65;11.10;;;24.20;84.80;;;;;;4977684;28;20031;-64
2023/05/22 07:50:55;;;;;;;17.65;9.70;;;23.90;80.90;;;;;;4977571;28;20026;-64
2023/05/22 07:53:22;;;;;;;18.42;8.80;;;23.50;82.30;;;;;;4977468;28;20022;-63
2023/05/22 07:55:50;;;;;;;12.45;8.50;;;24.20;84.30;;;;;;4977605;28;20034;-64
2023/05/22 07:58:16;;;;;;;14.20;7.68;;;24.70;77.10;;;;;;4977456;28;20037;-64
2023/05/22 08:00:45;;;;;;;10.48;6.68;;;25.20;71.60;;;;;;4977619;28;20066;-64
2023/05/22 08:03:11;;;;;;;12.60;6.25;;;25.00;66.30;;;;;;4994903;28;20038;-64
2023/05/22 08:05:37;;;;;;;13.20;6.60;;;24.60;69.30;;;;;;4995129;28;20030;-64
2023/05/22 08:08:03;;;;;;;11.05;7.20;;;25.10;68.80;;;;;;4994844;28;20125;-64
2023/05/22 08:10:29;;;;;;;12.20;6.35;;;25.50;70.00;;;;;;4994884;28;20022;-64
2023/05/22 08:12:57;;;;;;;12.02;6.50;;;25.60;61.90;;;;;;4994945;28;20022;-64
2023/05/22 08:15:23;;;;;;;6.93;5.20;;;25.30;60.00;;;;;;4994742;28;20070;-64
2023/05/22 08:17:49;;;;;;;10.32;5.68;;;25.20;61.30;;;;;;4994858;28;20034;-64
2023/05/22 08:20:15;;;;;;;8.73;5.22;;;25.90;61.80;;;;;;4994783;28;20033;-64
2023/05/22 08:22:41;;;;;;;9.07;5.15;;;25.80;57.00;;;;;;4994739;28;20057;-64
2023/05/22 08:25:08;;;;;;;10.25;4.68;;;26.20;54.60;;;;;;4994664;28;20511;-64
2023/05/22 08:27:33;;;;;;;9.52;4.82;;;26.50;54.00;;;;;;4994644;28;20057;-64
2023/05/22 08:30:02;;;;;;;11.48;5.07;;;26.10;52.50;;;;;;4997712;28;20069;-63
2023/05/22 08:32:28;;;;;;;8.63;5.03;;;25.50;53.80;;;;;;4998717;28;20019;-64
2023/05/22 08:34:54;;;;;;;8.15;4.72;;;25.20;55.30;;;;;;4998732;28;20033;-64
2023/05/22 08:37:20;;;;;;;8.57;5.15;;;26.10;58.40;;;;;;4998525;28;20044;-64
2023/05/22 08:39:46;;;;;;;6.68;4.68;;;26.20;56.70;;;;;;4998318;28;20414;-64
2023/05/22 08:42:13;;;;;;;8.73;5.32;;;26.90;58.10;;;;;;4998360;28;20086;-64
2023/05/22 08:44:39;;;;;;;10.00;5.53;;;26.80;51.10;;;;;;4998496;28;20030;-64
2023/05/22 08:47:10;;;;;;;9.82;4.75;;;27.10;54.20;;;;;;4998473;28;20034;-64
2023/05/22 08:49:38;;;;;;;10.32;5.28;;;27.40;52.70;;;;;;4998350;28;20022;-64
2023/05/22 08:52:37;;;;;;;16.70;6.05;;;27.20;50.90;;;;;;4998505;28;20058;-64
2023/05/22 08:55:04;;;;;;;11.43;4.90;;;26.50;50.60;;;;;;4984305;28;20035;-64
2023/05/22 08:57:31;;;;;;;16.05;4.57;;;27.30;52.50;;;;;;4998295;28;20564;-63
2023/05/22 08:59:57;;;;;;;12.48;5.50;;;28.00;51.90;;;;;;4998462;28;20038;-64
2023/05/22 09:02:24;;;;;;;14.90;5.60;;;28.50;49.70;;;;;;4998283;28;20041;-64
2023/05/22 09:04:51;;;;;;;11.10;4.50;;;28.70;50.40;;;;;;4998319;28;20480;-64
2023/05/22 09:07:17;;;;;;;12.55;4.70;;;28.20;50.80;;;;;;4998065;28;20152;-64
2023/05/22 09:09:43;;;;;;;15.43;5.55;;;28.30;44.30;;;;;;4998091;28;20031;-64
2023/05/22 09:12:09;;;;;;;28.70;5.38;;;27.40;46.90;;;;;;4998179;28;20113;-64
2023/05/22 09:14:43;;;;;;;37.95;6.72;;;27.50;45.90;;;;;;4997996;28;20085;-64
2023/05/22 09:17:14;;;;;;;15.73;5.30;;;27.90;46.20;;;;;;4997887;28;20030;-64
2023/05/22 09:19:46;;;;;;;8.63;4.30;;;28.30;46.40;;;;;;4997841;28;20542;-63
2023/05/22 09:22:13;;;;;;;11.00;4.78;;;28.30;44.00;;;;;;4996278;28;20420;-64
2023/05/22 09:24:44;;;;;;;17.08;5.93;;;28.30;42.00;;;;;;4997978;28;20069;-64
2023/05/22 09:27:11;;;;;;;34.35;11.75;;;27.00;47.10;;;;;;4997773;28;20030;-64
2023/05/22 09:29:51;;;;;;;12.05;4.72;;;27.80;48.30;;;;;;4996563;28;20030;-64
2023/05/22 09:32:17;;;;;;;10.90;5.20;;;28.50;42.30;;;;;;4991394;28;20030;-64
2023/05/22 09:34:45;;;;;;;5.82;3.97;;;29.10;46.20;;;;;;4981753;28;20114;-64
2023/05/22 09:37:15;;;;;;;12.90;4.82;;;29.50;45.50;;;;;;4977790;28;20038;-64
2023/05/22 09:39:45;;;;;;;9.30;4.93;;;29.20;39.00;;;;;;4988781;28;20030;-64
2023/05/22 09:42:14;;;;;;;13.05;4.95;;;29.10;41.40;;;;;;4986176;28;20291;-64
2023/05/22 09:44:42;;;;;;;8.68;4.22;;;28.50;38.90;;;;;;4996872;28;20085;-64
2023/05/22 09:47:09;;;;;;;7.03;4.25;;;27.80;39.20;;;;;;4997063;28;20504;-64
2023/05/22 09:49:43;;;;;;;8.38;4.15;;;27.40;41.60;;;;;;4997274;28;20044;-64
2023/05/22 09:52:13;;;;;;;7.72;4.20;;;27.60;37.20;;;;;;4995569;28;20080;-64
2023/05/22 09:54:54;;;;;;;13.55;5.75;;;27.30;39.00;;;;;;4988538;28;20408;-64
2023/05/22 09:57:24;;;;;;;13.15;4.72;;;26.70;43.40;;;;;;4977724;28;20397;-64
2023/05/22 09:59:53;;;;;;;7.68;4.63;;;27.70;46.90;;;;;;4977877;28;20045;-64
2023/05/22 10:02:23;;;;;;;17.65;5.03;;;28.70;42.40;;;;;;4977689;28;20031;-64
2023/05/22 10:04:50;;;;;;;25.85;6.13;;;29.20;40.60;;;;;;4983359;28;20370;-64
2023/05/22 10:07:23;;;;;;;10.32;5.25;;;29.30;42.90;;;;;;4996456;28;20034;-64
2023/05/22 10:10:03;;;;;;;15.90;5.32;;;29.30;41.20;;;;;;4991952;28;20496;-64
2023/05/22 10:12:32;;;;;;;17.10;4.30;;;30.00;41.50;;;;;;4992344;28;20018;-64
2023/05/22 10:15:01;;;;;;;11.98;4.93;;;30.50;42.20;;;;;;4990529;28;20019;-64
2023/05/22 10:17:28;;;;;;;7.35;4.72;;;30.90;42.70;;;;;;4989598;28;20114;-64
2023/05/22 10:19:56;;;;;;;7.60;4.88;;;30.50;38.80;;;;;;4990929;28;20029;-64
2023/05/22 10:22:24;;;;;;;7.63;4.50;;;30.70;39.20;;;;;;4996309;28;20511;-64
2023/05/22 10:24:51;;;;;;;6.28;4.60;;;28.70;37.40;;;;;;4996734;28;20053;-64
2023/05/22 10:27:17;;;;;;;9.63;3.83;;;29.50;38.50;;;;;;4996550;28;20030;-64
2023/05/22 10:29:53;;;;;;;6.13;4.57;;;29.50;38.40;;;;;;4996340;28;20546;-64
2023/05/22 10:32:25;;;;;;;5.95;4.72;;;29.40;38.30;;;;;;4996717;28;20461;-64
2023/05/22 10:34:55;;;;;;;12.57;5.18;;;29.70;37.90;;;;;;4978949;28;20056;-64
2023/05/22 10:37:36;;;;;;;6.72;4.05;;;29.30;40.20;;;;;;4996372;28;20030;-64
2023/05/22 10:40:32;;;;;;;11.32;5.32;;;30.20;41.50;;;;;;4996454;28;20038;-64
2023/05/22 10:43:02;;;;;;;16.25;5.75;;;30.10;37.10;;;;;;4996318;28;20054;-64
2023/05/22 10:45:30;;;;;;;7.13;4.63;;;29.30;39.70;;;;;;4996149;28;20069;-64
2023/05/22 10:48:06;;;;;;;9.30;4.30;;;28.60;39.60;;;;;;4994718;28;20384;-64
2023/05/22 10:50:33;;;;;;;6.57;4.65;;;28.30;40.00;;;;;;4996639;28;20034;-64
2023/05/22 10:53:18;;;;;;;8.07;4.40;;;28.90;43.00;;;;;;4995448;28;20030;-64
2023/05/22 10:55:52;;;;;;;6.80;4.22;;;29.30;43.70;;;;;;4995922;28;20042;-65
2023/05/22 10:58:27;;;;;;;6.82;4.43;;;29.10;44.60;;;;;;4996153;28;20037;-65
2023/05/22 11:01:12;;;;;;;8.15;4.93;;;28.70;43.70;;;;;;4995862;28;20036;-65
2023/05/22 11:03:53;;;;;;;21.23;8.50;;;28.40;47.70;;;;;;4995905;28;20085;-65
2023/05/22 11:06:39;;;;;;;12.98;5.13;;;28.30;46.80;;;;;;4996013;28;20037;-64
2023/05/22 11:09:41;;;;;;;7.75;4.30;;;28.00;42.50;;;;;;4995752;28;20110;-65
2023/05/22 11:12:18;;;;;;;8.93;5.25;;;26.90;40.30;;;;;;4995959;28;20065;-64
2023/05/22 11:14:50;;;;;;;10.23;4.70;;;28.40;43.70;;;;;;4995862;28;20026;-64
2023/05/22 11:17:19;;;;;;;7.50;4.32;;;28.90;41.40;;;;;;4995744;28;20033;-65
2023/05/22 11:20:04;;;;;;;13.75;5.85;;;28.50;40.80;;;;;;4995242;28;20109;-65
2023/05/22 11:22:30;;;;;;;10.73;5.07;;;28.40;43.10;;;;;;4995763;28;20034;-65
2023/05/22 11:24:58;;;;;;;17.33;5.93;;;27.50;41.30;;;;;;4995549;28;20037;-65
2023/05/22 11:27:25;;;;;;;16.60;5.65;;;27.00;42.70;;;;;;4995593;28;20060;-65
2023/05/22 11:29:53;;;;;;;8.18;4.85;;;27.70;43.00;;;;;;4995550;28;20057;-65
2023/05/22 11:32:21;;;;;;;19.02;6.07;;;27.10;42.20;;;;;;4995472;28;20022;-65
2023/05/22 11:34:49;;;;;;;10.88;4.65;;;26.80;43.50;;;;;;4995367;28;20054;-65
2023/05/22 11:37:17;;;;;;;13.60;5.00;;;27.60;42.00;;;;;;4995149;28;20033;-64
2023/05/22 11:39:54;;;;;;;16.05;4.97;;;28.30;40.30;;;;;;4995293;28;20033;-64
2023/05/22 11:42:24;;;;;;;9.35;3.92;;;27.90;37.80;;;;;;4995131;28;20042;-64
2023/05/22 11:44:50;;;;;;;30.08;6.68;;;27.90;37.10;;;;;;4995245;28;20033;-64
2023/05/22 11:47:17;;;;;;;23.05;6.75;;;28.50;40.00;;;;;;4995290;28;20031;-64
2023/05/22 11:49:43;;;;;;;15.88;5.57;;;28.80;42.30;;;;;;4995184;28;20062;-64
2023/05/22 11:52:09;;;;;;;15.82;5.88;;;29.50;40.40;;;;;;4995305;28;20052;-64
2023/05/22 11:54:36;;;;;;;22.10;5.90;;;29.80;41.30;;;;;;4995033;28;20030;-65
2023/05/22 11:57:08;;;;;;;15.07;5.25;;;29.70;40.30;;;;;;4995015;28;20034;-64
2023/05/22 11:59:34;;;;;;;26.92;6.47;;;29.90;42.10;;;;;;4995006;28;20098;-64
2023/05/22 12:02:00;;;;;;;12.80;5.90;;;30.10;39.10;;;;;;4994478;28;20113;-65
2023/05/22 12:04:26;;;;;;;11.80;4.40;;;30.50;41.30;;;;;;4994840;28;20114;-64
2023/05/22 12:06:53;;;;;;;14.10;4.85;;;29.80;38.50;;;;;;4994406;28;20035;-65
2023/05/22 12:09:19;;;;;;;11.30;6.05;;;30.00;39.60;;;;;;4993533;28;20274;-64
2023/05/22 12:11:49;;;;;;;45.55;9.55;;;30.40;43.10;;;;;;4994546;28;20539;-65
2023/05/22 12:14:15;;;;;;;34.13;10.83;;;30.80;39.10;;;;;;4994670;28;20022;-64
2023/05/22 12:16:41;;;;;;;19.10;7.43;;;31.00;41.90;;;;;;4994986;28;20157;-65
2023/05/22 12:19:11;;;;;;;14.77;6.13;;;31.00;39.90;;;;;;5014553;28;20108;-64
2023/05/22 12:21:38;;;;;;;9.65;4.63;;;31.30;41.90;;;;;;5014521;28;20124;-65
2023/05/22 12:24:05;;;;;;;6.60;4.35;;;31.00;36.60;;;;;;5014131;28;20042;-65
2023/05/22 12:26:35;;;;;;;13.25;4.65;;;30.50;41.90;;;;;;5006667;28;20034;-65
2023/05/22 12:29:01;;;;;;;;;;;30.90;39.70;;;;;;4995236;28;20029;-65
2023/05/22 12:31:27;;;;;;;11.50;4.65;;;30.80;37.00;;;;;;4994479;28;19914;-65
2023/05/22 12:33:54;;;;;;;10.48;5.40;;;29.60;39.60;;;;;;4994835;28;20060;-65
2023/05/22 12:36:22;;;;;;;7.57;4.40;;;29.60;39.20;;;;;;4994778;28;20061;-65
2023/05/22 12:38:48;;;;;;;15.07;4.65;;;29.90;37.30;;;;;;4994407;28;20039;-65
2023/05/22 12:41:14;;;;;;;8.90;4.50;;;29.40;37.80;;;;;;4994817;28;20030;-65
2023/05/22 12:43:41;;;;;;;5.40;4.15;;;29.90;41.20;;;;;;4994586;28;20100;-65
2023/05/22 12:46:07;;;;;;;13.38;5.25;;;30.40;41.60;;;;;;4994286;28;20483;-65